createdAt,value
2022-08-09T00:01:01.023Z,110.78
2022-08-09T00:04:05.873Z,94.45
2022-08-09T00:06:23.043Z,119.70
2022-08-09T00:08:57.073Z,201.73
2022-08-09T00:11:55.055Z,99.03
2022-08-09T00:14:21.778Z,100.95
2022-08-09T00:16:56.998Z,118.25
2022-08-09T00:19:27.767Z,80.53
2022-08-09T00:21:57.156Z,83.20
2022-08-09T00:24:27.512Z,73.32
2022-08-09T00:26:57.375Z,60.67
2022-08-09T00:30:10.159Z,78.13
2022-08-09T00:32:35.658Z,65.70
2022-08-09T00:35:04.643Z,58.20
2022-08-09T00:37:33.157Z,87.78
2022-08-09T00:40:13.898Z,89.22
2022-08-09T00:44:12.935Z,43.33
2022-08-09T00:45:37.349Z,49.60
2022-08-09T00:48:06.530Z,57.70
2022-08-09T00:50:37.779Z,51.83
2022-08-09T00:53:10.300Z,42.42
2022-08-09T00:56:05.552Z,24.88
2022-08-09T00:58:27.911Z,33.13
2022-08-09T01:01:00.682Z,15.68
2022-08-09T01:03:45.617Z,18.33
2022-08-09T01:06:19.039Z,19.48
2022-08-09T01:08:51.462Z,11.82
2022-08-09T01:11:25.669Z,23.73
2022-08-09T01:13:59.841Z,40.08
2022-08-09T01:16:32.369Z,49.72
2022-08-09T01:19:04.662Z,33.35
2022-08-09T01:21:44.961Z,26.95
2022-08-09T01:24:26.975Z,24.05
2022-08-09T01:26:59.508Z,38.83
2022-08-09T01:29:41.200Z,40.97
2022-08-09T01:32:29.783Z,36.42
2022-08-09T01:35:28.269Z,21.40
2022-08-09T01:38:10.259Z,14.02
2022-08-09T01:40:44.399Z,22.02
2022-08-09T01:43:15.248Z,15.93
2022-08-09T01:45:46.000Z,11.68
2022-08-09T01:48:17.512Z,14.80
2022-08-09T01:50:55.149Z,14.93
2022-08-09T01:53:29.235Z,15.20
2022-08-09T01:56:11.012Z,21.92
2022-08-09T01:58:42.607Z,14.70
2022-08-09T02:01:11.928Z,12.55
2022-08-09T02:03:48.122Z,11.05
2022-08-09T02:06:18.178Z,11.88
2022-08-09T02:08:58.923Z,22.20
2022-08-09T02:11:40.245Z,12.85
2022-08-09T02:14:16.055Z,11.98
2022-08-09T02:17:15.553Z,12.25
2022-08-09T02:19:44.574Z,10.18
2022-08-09T02:22:19.076Z,9.80
2022-08-09T02:24:59.522Z,8.77
2022-08-09T02:27:43.546Z,12.52
2022-08-09T02:30:19.624Z,11.93
2022-08-09T02:32:49.427Z,16.35
2022-08-09T02:35:28.806Z,10.85
2022-08-09T02:38:11.675Z,10.55
2022-08-09T02:40:53.081Z,10.65
2022-08-09T02:43:25.342Z,14.20
2022-08-09T02:46:00.686Z,11.48
2022-08-09T02:48:32.077Z,11.40
2022-08-09T02:51:02.402Z,11.65
2022-08-09T02:53:34.291Z,8.23
2022-08-09T02:56:04.030Z,10.18
2022-08-09T02:58:36.455Z,11.82
2022-08-09T03:01:10.900Z,6.80
2022-08-09T03:04:16.770Z,10.38
2022-08-09T03:06:33.265Z,8.23
2022-08-09T03:09:02.392Z,7.75
2022-08-09T03:12:05.873Z,10.60
2022-08-09T03:14:28.318Z,13.68
2022-08-09T03:16:59.309Z,12.27
2022-08-09T03:19:52.141Z,7.55
2022-08-09T03:22:30.147Z,7.78
2022-08-09T03:25:16.160Z,9.65
2022-08-09T03:27:49.900Z,8.45
2022-08-09T03:30:29.814Z,8.25
2022-08-09T03:33:05.684Z,6.55
2022-08-09T03:36:12.677Z,6.20
2022-08-09T03:38:36.059Z,8.07
2022-08-09T03:41:10.349Z,13.80
2022-08-09T03:44:03.384Z,6.75
2022-08-09T03:46:33.009Z,8.20
2022-08-09T03:49:08.083Z,7.65
2022-08-09T03:51:43.789Z,7.57
2022-08-09T03:54:29.548Z,7.47
2022-08-09T03:57:00.176Z,11.18
2022-08-09T03:59:42.981Z,5.15
2022-08-09T04:02:12.450Z,6.10
2022-08-09T04:04:45.644Z,8.73
2022-08-09T04:07:14.874Z,6.90
2022-08-09T04:09:50.009Z,8.98
2022-08-09T04:12:36.425Z,6.68
2022-08-09T04:15:17.225Z,5.38
2022-08-09T04:17:54.315Z,7.25
2022-08-09T04:20:28.160Z,9.02
2022-08-09T04:22:58.334Z,8.45
2022-08-09T04:25:27.805Z,6.55
2022-08-09T04:28:02.504Z,11.15
2022-08-09T04:30:32.809Z,5.43
2022-08-09T04:33:01.836Z,7.50
2022-08-09T04:35:32.797Z,4.07
2022-08-09T04:38:03.507Z,3.90
2022-08-09T04:40:46.310Z,6.57
2022-08-09T04:43:15.218Z,10.95
2022-08-09T04:45:53.051Z,13.10
2022-08-09T04:48:23.922Z,10.35
2022-08-09T04:51:03.656Z,7.60
2022-08-09T04:53:32.199Z,6.53
2022-08-09T04:56:02.830Z,5.70
2022-08-09T04:58:32.982Z,6.18
2022-08-09T05:01:03.106Z,7.65
2022-08-09T05:03:42.632Z,7.50
2022-08-09T05:06:27.300Z,9.00
2022-08-09T05:09:00.679Z,8.93
2022-08-09T05:11:30.555Z,8.73
2022-08-09T05:14:01.244Z,8.07
2022-08-09T05:16:58.516Z,5.05
2022-08-09T05:19:31.814Z,6.82
2022-08-09T05:22:33.549Z,6.15
2022-08-09T05:25:03.753Z,16.13
2022-08-09T05:27:32.368Z,10.63
2022-08-09T05:30:02.344Z,15.85
2022-08-09T05:32:30.957Z,16.92
2022-08-09T05:35:05.566Z,11.43
2022-08-09T05:37:38.154Z,15.18
2022-08-09T05:40:16.582Z,11.55
2022-08-09T05:42:46.996Z,16.02
2022-08-09T05:45:15.546Z,14.25
2022-08-09T05:47:52.173Z,23.00
2022-08-09T05:50:44.035Z,14.13
2022-08-09T05:53:32.478Z,13.43
2022-08-09T05:56:02.011Z,14.15
2022-08-09T05:58:30.588Z,9.13
2022-08-09T06:01:06.715Z,7.72
2022-08-09T06:03:44.095Z,10.93
2022-08-09T06:06:23.100Z,9.90
2022-08-09T06:08:53.050Z,8.30
2022-08-09T06:11:40.794Z,13.88
2022-08-09T06:14:13.378Z,8.15
2022-08-09T06:16:41.904Z,12.77
2022-08-09T06:19:22.426Z,13.10
2022-08-09T06:21:58.201Z,20.55
2022-08-09T06:24:29.369Z,12.43
2022-08-09T06:26:58.145Z,12.02
2022-08-09T06:29:26.909Z,8.02
2022-08-09T06:32:08.848Z,8.20
2022-08-09T06:34:49.015Z,14.15
2022-08-09T06:37:23.346Z,8.50
2022-08-09T06:40:01.292Z,10.68
2022-08-09T06:42:34.514Z,8.30
2022-08-09T06:46:04.307Z,7.63
2022-08-09T06:48:02.481Z,8.18
2022-08-09T06:50:31.110Z,5.88
2022-08-09T06:53:01.518Z,4.70
2022-08-09T06:55:33.286Z,7.60
2022-08-09T06:58:04.414Z,9.38
2022-08-09T07:00:50.170Z,7.70
2022-08-09T07:03:28.241Z,8.18
2022-08-09T07:06:03.497Z,4.43
2022-08-09T07:08:33.623Z,7.35
2022-08-09T07:11:04.339Z,3.72
2022-08-09T07:13:45.315Z,4.00
2022-08-09T07:16:42.707Z,7.75
2022-08-09T07:19:15.806Z,3.53
2022-08-09T07:21:56.998Z,4.53
2022-08-09T07:24:32.247Z,4.57
2022-08-09T07:27:26.314Z,5.80
2022-08-09T07:29:59.840Z,4.03
2022-08-09T07:32:32.590Z,4.63
2022-08-09T07:35:10.522Z,4.50
2022-08-09T07:37:44.089Z,4.95
2022-08-09T07:40:17.283Z,4.43
2022-08-09T07:42:51.287Z,5.35
2022-08-09T07:45:38.008Z,8.30
2022-08-09T07:48:28.605Z,10.30
2022-08-09T07:51:02.994Z,6.90
2022-08-09T07:54:05.671Z,4.57
2022-08-09T07:56:27.981Z,6.63
2022-08-09T07:59:01.026Z,7.82
2022-08-09T08:01:33.112Z,11.10
2022-08-09T08:04:03.201Z,8.25
2022-08-09T08:06:32.663Z,11.60
2022-08-09T08:09:07.777Z,9.70
2022-08-09T08:12:24.380Z,8.52
2022-08-09T08:14:42.044Z,12.73
2022-08-09T08:17:11.972Z,6.97
2022-08-09T08:19:53.342Z,9.00
2022-08-09T08:22:24.063Z,8.48
2022-08-09T08:24:57.521Z,9.50
2022-08-09T08:27:27.140Z,12.32
2022-08-09T08:30:11.662Z,6.00
2022-08-09T08:32:53.717Z,7.72
2022-08-09T08:35:22.983Z,9.18
2022-08-09T08:38:01.809Z,8.95
2022-08-09T08:40:37.864Z,9.02
2022-08-09T08:43:08.776Z,6.65
2022-08-09T08:45:51.494Z,6.05
2022-08-09T08:48:29.278Z,12.02
2022-08-09T08:51:00.284Z,7.68
2022-08-09T08:53:32.179Z,9.15
2022-08-09T08:56:06.404Z,9.63
2022-08-09T08:58:37.730Z,8.48
2022-08-09T09:01:09.125Z,11.43
2022-08-09T09:03:50.745Z,12.57
2022-08-09T09:06:22.332Z,12.40
2022-08-09T09:08:52.740Z,9.98
2022-08-09T09:11:21.891Z,6.68
2022-08-09T09:13:56.554Z,7.93
2022-08-09T09:16:30.340Z,14.82
2022-08-09T09:19:22.588Z,8.95
2022-08-09T09:22:05.455Z,11.70
2022-08-09T09:24:38.179Z,8.70
2022-08-09T09:27:09.537Z,13.43
2022-08-09T09:30:12.331Z,12.73
2022-08-09T09:32:44.407Z,6.85
2022-08-09T09:35:15.958Z,11.00
2022-08-09T09:37:47.877Z,8.98
2022-08-09T09:40:17.803Z,10.13
2022-08-09T09:42:56.570Z,11.00
2022-08-09T09:45:29.371Z,11.75
2022-08-09T09:48:05.180Z,7.65
2022-08-09T09:50:50.725Z,14.38
2022-08-09T09:53:21.203Z,14.18
2022-08-09T09:56:04.131Z,6.45
2022-08-09T09:58:46.141Z,8.30
2022-08-09T10:01:30.885Z,12.27
2022-08-09T10:04:15.874Z,5.70
2022-08-09T10:06:52.018Z,10.70
2022-08-09T10:09:24.079Z,9.07
2022-08-09T10:12:07.834Z,7.00
2022-08-09T10:14:44.017Z,6.55
2022-08-09T10:17:40.203Z,12.48
2022-08-09T10:20:14.967Z,15.00
2022-08-09T10:22:44.365Z,7.97
2022-08-09T10:25:14.669Z,7.50
2022-08-09T10:27:56.320Z,7.45
2022-08-09T10:34:04.917Z,7.88
2022-08-09T10:36:11.492Z,7.68
2022-08-09T10:38:56.873Z,6.20
2022-08-09T10:41:28.551Z,6.80
2022-08-09T10:44:01.461Z,5.22
2022-08-09T10:46:55.193Z,8.15
2022-08-09T10:49:50.257Z,6.72
2022-08-09T10:52:22.695Z,11.05
2022-08-09T10:54:55.098Z,8.35
2022-08-09T10:57:24.092Z,7.40
2022-08-09T10:59:57.470Z,5.97
2022-08-09T11:03:15.571Z,6.00
2022-08-09T11:05:30.247Z,6.65
2022-08-09T11:08:33.179Z,8.68
2022-08-09T11:11:08.971Z,9.25
2022-08-09T11:13:53.942Z,11.23
2022-08-09T11:16:41.569Z,10.48
2022-08-09T11:19:11.518Z,7.18
2022-08-09T11:22:05.403Z,8.32
2022-08-09T11:24:57.938Z,9.90
2022-08-09T11:28:05.168Z,12.27
2022-08-09T11:30:35.585Z,11.32
2022-08-09T11:33:05.820Z,12.27
2022-08-09T11:35:48.983Z,10.98
2022-08-09T11:38:22.036Z,8.85
2022-08-09T11:40:53.038Z,14.90
2022-08-09T11:43:38.805Z,14.00
2022-08-09T11:46:09.471Z,5.82
2022-08-09T11:48:49.693Z,7.65
2022-08-09T11:52:06.739Z,8.25
2022-08-09T11:54:14.066Z,10.90
2022-08-09T11:56:48.047Z,10.35
2022-08-09T11:59:30.498Z,8.32
2022-08-09T12:02:34.107Z,10.38
2022-08-09T12:04:59.226Z,17.67
2022-08-09T12:07:41.269Z,25.80
2022-08-09T12:10:14.450Z,11.52
2022-08-09T12:13:03.448Z,15.82
2022-08-09T12:15:50.361Z,18.27
2022-08-09T12:18:30.080Z,22.48
2022-08-09T12:21:02.834Z,10.75
2022-08-09T12:23:58.679Z,18.65
2022-08-09T12:26:26.390Z,22.90
2022-08-09T12:29:14.404Z,33.28
2022-08-09T12:32:01.838Z,15.40
2022-08-09T12:34:36.720Z,20.27
2022-08-09T12:37:22.168Z,25.92
2022-08-09T12:40:02.381Z,34.55
2022-08-09T12:42:31.801Z,15.18
2022-08-09T12:45:01.272Z,21.65
2022-08-09T12:47:32.690Z,22.48
2022-08-09T12:50:19.982Z,20.17
2022-08-09T12:53:17.415Z,14.65
2022-08-09T12:56:15.740Z,27.88
2022-08-09T12:58:32.593Z,34.35
2022-08-09T13:01:04.551Z,15.10
2022-08-09T13:03:53.805Z,12.85
2022-08-09T13:06:34.838Z,20.90
2022-08-09T13:09:06.297Z,28.67
2022-08-09T13:11:39.621Z,22.60
2022-08-09T13:14:43.008Z,20.92
2022-08-09T13:17:01.945Z,27.65
2022-08-09T13:20:09.623Z,19.73
2022-08-09T13:22:36.148Z,10.88
2022-08-09T13:25:13.727Z,7.03
2022-08-09T13:27:55.206Z,6.30
2022-08-09T13:30:50.842Z,9.23
2022-08-09T13:33:17.237Z,12.77
2022-08-09T13:36:38.818Z,8.00
2022-08-09T13:38:55.491Z,9.13
2022-08-09T13:41:58.698Z,17.45
2022-08-09T13:44:16.969Z,11.02
2022-08-09T13:47:28.902Z,7.80
2022-08-09T13:49:39.760Z,15.75
2022-08-09T13:52:26.143Z,30.23
2022-08-09T13:55:00.588Z,10.25
2022-08-09T13:57:37.154Z,8.20
2022-08-09T14:00:09.831Z,12.20
2022-08-09T14:02:42.857Z,23.50
2022-08-09T14:06:00.376Z,10.35
2022-08-09T14:08:15.835Z,9.43
2022-08-09T14:10:52.689Z,6.43
2022-08-09T14:13:28.420Z,10.63
2022-08-09T14:16:13.794Z,15.60
2022-08-09T14:18:45.814Z,6.57
2022-08-09T14:21:18.574Z,12.18
2022-08-09T14:23:54.919Z,14.25
2022-08-09T14:26:31.800Z,9.00
2022-08-09T14:29:02.218Z,9.75
2022-08-09T14:31:35.900Z,13.77
2022-08-09T14:34:27.345Z,13.40
2022-08-09T14:37:01.010Z,13.30
2022-08-09T14:39:40.489Z,13.00
2022-08-09T14:42:28.965Z,9.07
2022-08-09T14:46:40.560Z,10.90
2022-08-09T14:47:57.450Z,7.70
2022-08-09T14:50:29.048Z,10.90
2022-08-09T14:52:57.758Z,6.32
2022-08-09T14:55:32.033Z,14.57
2022-08-09T14:58:03.621Z,37.13
2022-08-09T15:00:34.338Z,16.48
2022-08-09T15:03:05.588Z,11.18
2022-08-09T15:05:34.317Z,11.80
2022-08-09T15:08:05.327Z,38.70
2022-08-09T15:10:34.991Z,12.32
2022-08-09T15:13:05.908Z,8.90
2022-08-09T15:15:38.886Z,9.93
2022-08-09T15:18:13.960Z,34.38
2022-08-09T15:21:57.802Z,10.77
2022-08-09T15:24:03.642Z,8.02
2022-08-09T15:26:31.111Z,20.17
2022-08-09T15:29:04.287Z,15.30
2022-08-09T15:31:41.303Z,8.07
2022-08-09T15:34:17.311Z,8.43
2022-08-09T15:36:59.749Z,19.48
2022-08-09T15:39:44.013Z,17.65
2022-08-09T15:42:18.803Z,9.93
2022-08-09T15:44:48.987Z,7.97
2022-08-09T15:47:21.607Z,25.10
2022-08-09T15:50:04.357Z,20.60
2022-08-09T15:52:36.408Z,14.48
2022-08-09T15:55:05.288Z,10.27
2022-08-09T15:57:44.431Z,28.35
2022-08-09T16:00:25.286Z,15.10
2022-08-09T16:02:56.439Z,17.60
2022-08-09T16:05:26.826Z,9.73
2022-08-09T16:08:29.694Z,36.05
2022-08-09T16:11:02.293Z,12.32
2022-08-09T16:14:04.727Z,10.15
2022-08-09T16:16:26.174Z,12.57
2022-08-09T16:18:57.449Z,14.13
2022-08-09T16:21:26.462Z,14.02
2022-08-09T16:24:02.207Z,9.20
2022-08-09T16:26:34.921Z,14.32
2022-08-09T16:29:10.704Z,20.83
2022-08-09T16:32:19.749Z,18.33
2022-08-09T16:34:56.060Z,9.75
2022-08-09T16:37:50.646Z,24.63
2022-08-09T16:40:09.483Z,15.55
2022-08-09T16:42:38.339Z,8.98
2022-08-09T16:45:08.125Z,10.27
2022-08-09T16:48:42.731Z,13.82
2022-08-09T16:50:33.782Z,11.05
2022-08-09T16:53:02.960Z,15.45
2022-08-09T16:56:00.102Z,19.30
2022-08-09T16:58:24.844Z,25.13
2022-08-09T17:00:54.901Z,8.50
2022-08-09T17:03:25.295Z,14.73
2022-08-09T17:06:08.686Z,20.27
2022-08-09T17:09:04.870Z,27.45
2022-08-09T17:11:40.167Z,29.60
2022-08-09T17:14:26.139Z,27.25
2022-08-09T17:16:59.458Z,22.58
2022-08-09T17:19:47.129Z,26.73
2022-08-09T17:22:24.729Z,31.60
2022-08-09T17:25:03.466Z,31.52
2022-08-09T17:27:33.474Z,34.20
2022-08-09T17:30:07.112Z,26.45
2022-08-09T17:32:45.481Z,21.25
2022-08-09T17:35:16.426Z,21.63
2022-08-09T17:38:11.798Z,23.00
2022-08-09T17:40:35.287Z,19.00
2022-08-09T17:43:32.457Z,22.38
2022-08-09T17:46:04.059Z,24.27
2022-08-09T17:48:34.691Z,16.25
2022-08-09T17:51:09.860Z,18.73
2022-08-09T17:53:52.449Z,16.40
2022-08-09T17:56:27.251Z,19.88
2022-08-09T17:58:57.738Z,13.93
2022-08-09T18:01:40.676Z,14.45
2022-08-09T18:04:14.815Z,18.48
2022-08-09T18:06:54.617Z,14.13
2022-08-09T18:09:25.373Z,14.75
2022-08-09T18:12:17.784Z,14.15
2022-08-09T18:14:55.060Z,12.10
2022-08-09T18:18:02.049Z,11.10
2022-08-09T18:20:55.429Z,11.43
2022-08-09T18:23:07.989Z,9.98
2022-08-09T18:25:58.080Z,9.60
2022-08-09T18:30:38.671Z,9.85
2022-08-09T18:31:24.825Z,12.80
2022-08-09T18:34:01.036Z,11.32
2022-08-09T18:36:32.448Z,8.05
2022-08-09T18:39:06.684Z,10.10
2022-08-09T18:41:37.008Z,8.40
2022-08-09T18:44:13.581Z,6.53
2022-08-09T18:46:46.809Z,8.20
2022-08-09T18:49:21.599Z,9.57
2022-08-09T18:51:54.938Z,7.13
2022-08-09T18:54:28.614Z,9.93
2022-08-09T18:57:06.336Z,6.90
2022-08-09T18:59:37.667Z,7.78
2022-08-09T19:02:18.209Z,8.95
2022-08-09T19:04:47.760Z,13.27
2022-08-09T19:07:32.113Z,10.60
2022-08-09T19:10:14.150Z,9.43
2022-08-09T19:12:59.378Z,6.72
2022-08-09T19:15:34.470Z,10.40
2022-08-09T19:18:05.472Z,16.58
2022-08-09T19:20:39.269Z,11.85
2022-08-09T19:23:08.591Z,7.28
2022-08-09T19:26:01.985Z,9.93
2022-08-09T19:28:38.041Z,6.93
2022-08-09T19:31:07.822Z,8.40
2022-08-09T19:33:36.881Z,10.68
2022-08-09T19:36:11.709Z,7.30
2022-08-09T19:38:42.896Z,11.95
2022-08-09T19:41:12.855Z,8.35
2022-08-09T19:44:03.168Z,12.88
2022-08-09T19:46:35.304Z,9.82
2022-08-09T19:50:08.755Z,10.75
2022-08-09T19:51:56.096Z,9.32
2022-08-09T19:54:25.479Z,10.85
2022-08-09T19:56:55.370Z,10.15
2022-08-09T19:59:57.805Z,7.40
2022-08-09T20:03:23.876Z,8.10
2022-08-09T20:05:10.281Z,8.68
2022-08-09T20:07:59.693Z,7.40
2022-08-09T20:10:36.822Z,9.50
2022-08-09T20:13:10.421Z,9.48
2022-08-09T20:16:35.865Z,8.45
2022-08-09T20:18:28.485Z,7.00
2022-08-09T20:20:58.100Z,8.63
2022-08-09T20:23:38.629Z,8.00
2022-08-09T20:26:10.052Z,8.13
2022-08-09T20:28:48.726Z,8.00
2022-08-09T20:31:18.714Z,8.18
2022-08-09T20:33:52.229Z,6.47
2022-08-09T20:36:27.253Z,5.38
2022-08-09T20:39:28.971Z,10.93
2022-08-09T20:41:44.720Z,8.50
2022-08-09T20:44:26.404Z,7.43
2022-08-09T20:46:55.947Z,6.82
2022-08-09T20:49:27.496Z,8.63
2022-08-09T20:51:57.748Z,7.40
2022-08-09T20:54:29.119Z,5.03
2022-08-09T20:56:58.640Z,7.97
2022-08-09T21:00:19.601Z,10.85
2022-08-09T21:02:18.599Z,7.20
2022-08-09T21:05:52.734Z,8.15
2022-08-09T21:07:38.688Z,8.20
2022-08-09T21:10:11.570Z,6.70
2022-08-09T21:15:34.664Z,10.85
2022-08-09T21:18:22.560Z,18.42
2022-08-09T21:20:54.116Z,8.23
2022-08-09T21:23:36.111Z,12.15
2022-08-09T21:26:15.607Z,17.88
2022-08-09T21:28:55.391Z,22.70
2022-08-09T21:31:49.001Z,13.70
2022-08-09T21:34:21.037Z,14.77
2022-08-09T21:36:57.449Z,12.88
2022-08-09T21:39:28.155Z,14.48
2022-08-09T21:42:11.067Z,14.88
2022-08-09T21:44:39.753Z,15.13
2022-08-09T21:47:17.697Z,16.80
2022-08-09T21:49:48.301Z,19.13
2022-08-09T21:52:18.514Z,14.57
2022-08-09T21:54:53.665Z,22.00
2022-08-09T21:57:39.437Z,11.73
2022-08-09T22:00:25.261Z,26.67
2022-08-09T22:02:58.265Z,15.70
2022-08-09T22:05:36.163Z,16.33
2022-08-09T22:08:13.268Z,21.48
2022-08-09T22:11:05.202Z,14.57
2022-08-09T22:13:34.533Z,13.40
2022-08-09T22:16:04.319Z,12.60
2022-08-09T22:18:38.308Z,8.32
2022-08-09T22:21:09.708Z,13.55
2022-08-09T22:23:59.650Z,14.07
2022-08-09T22:26:34.692Z,10.52
2022-08-09T22:29:10.097Z,8.40
2022-08-09T22:31:50.662Z,10.20
2022-08-09T22:34:27.865Z,12.07
2022-08-09T22:36:57.536Z,14.75
2022-08-09T22:39:56.091Z,11.25
2022-08-09T22:42:22.350Z,6.25
2022-08-09T22:45:00.328Z,9.65
2022-08-09T22:48:16.237Z,14.18
2022-08-09T22:50:31.814Z,10.48
2022-08-09T22:53:03.786Z,6.97
2022-08-09T22:56:05.834Z,12.65
2022-08-09T22:58:32.555Z,8.20
2022-08-09T23:01:02.555Z,11.95
2022-08-09T23:04:03.445Z,11.95
2022-08-09T23:06:34.986Z,7.68
2022-08-09T23:09:03.579Z,8.48
2022-08-09T23:11:32.386Z,8.25
2022-08-09T23:14:03.047Z,8.05
2022-08-09T23:16:32.243Z,10.13
2022-08-09T23:19:01.416Z,7.38
2022-08-09T23:21:34.005Z,10.43
2022-08-09T23:24:07.129Z,9.13
2022-08-09T23:26:36.609Z,10.73
2022-08-09T23:29:05.769Z,9.90
2022-08-09T23:31:34.583Z,9.20
2022-08-09T23:34:03.991Z,11.07
2022-08-09T23:36:34.682Z,10.63
2022-08-09T23:39:03.971Z,18.02
2022-08-09T23:41:32.501Z,11.23
2022-08-09T23:44:01.376Z,9.55
2022-08-09T23:46:30.347Z,10.57
2022-08-09T23:48:59.116Z,19.45
2022-08-09T23:51:27.732Z,17.80
2022-08-09T23:54:02.138Z,16.27
2022-08-09T23:56:52.809Z,13.25
2022-08-09T23:59:21.098Z,12.52
